sensor_id;sensor_type;location;lat;lon;timestamp;temperature;humidity
11043;DHT22;5574;48.786;10.120;2023-03-17T00:00:12;4.60;99.90
11043;DHT22;5574;48.786;10.120;2023-03-17T00:02:40;4.60;99.90
11043;DHT22;5574;48.786;10.120;2023-03-17T00:05:21;4.50;99.90
11043;DHT22;5574;48.786;10.120;2023-03-17T00:07:49;4.50;99.90
11043;DHT22;5574;48.786;10.120;2023-03-17T00:10:19;4.40;99.90
11043;DHT22;5574;48.786;10.120;2023-03-17T00:12:47;4.50;99.90
11043;DHT22;5574;48.786;10.120;2023-03-17T00:15:14;4.40;99.90
11043;DHT22;5574;48.786;10.120;2023-03-17T00:17:42;4.40;99.90
11043;DHT22;5574;48.786;10.120;2023-03-17T00:20:17;4.50;99.90
11043;DHT22;5574;48.786;10.120;2023-03-17T00:22:47;4.50;99.90
11043;DHT22;5574;48.786;10.120;2023-03-17T00:25:23;4.50;99.90
11043;DHT22;5574;48.786;10.120;2023-03-17T00:27:50;4.50;99.90
11043;DHT22;5574;48.786;10.120;2023-03-17T00:30:17;4.50;99.90
11043;DHT22;5574;48.786;10.120;2023-03-17T00:32:46;4.50;99.90
11043;DHT22;5574;48.786;10.120;2023-03-17T00:35:20;4.40;99.90
11043;DHT22;5574;48.786;10.120;2023-03-17T00:37:49;4.40;99.90
11043;DHT22;5574;48.786;10.120;2023-03-17T00:40:19;4.40;99.90
11043;DHT22;5574;48.786;10.120;2023-03-17T00:42:47;4.40;99.90
11043;DHT22;5574;48.786;10.120;2023-03-17T00:45:14;4.40;99.90
11043;DHT22;5574;48.786;10.120;2023-03-17T00:47:41;4.40;99.90
11043;DHT22;5574;48.786;10.120;2023-03-17T00:50:11;4.40;99.90
11043;DHT22;5574;48.786;10.120;2023-03-17T00:52:38;4.40;99.90
11043;DHT22;5574;48.786;10.120;2023-03-17T00:55:08;4.20;99.90
11043;DHT22;5574;48.786;10.120;2023-03-17T00:57:35;4.20;99.90
11043;DHT22;5574;48.786;10.120;2023-03-17T01:00:03;4.20;99.90
11043;DHT22;5574;48.786;10.120;2023-03-17T01:02:30;4.30;99.90
11043;DHT22;5574;48.786;10.120;2023-03-17T01:04:57;4.20;99.90
11043;DHT22;5574;48.786;10.120;2023-03-17T01:07:25;4.20;99.90
11043;DHT22;5574;48.786;10.120;2023-03-17T01:09:52;4.30;99.90
11043;DHT22;5574;48.786;10.120;2023-03-17T01:12:21;4.20;99.90
11043;DHT22;5574;48.786;10.120;2023-03-17T01:14:47;4.30;99.90
11043;DHT22;5574;48.786;10.120;2023-03-17T01:17:15;4.20;99.90
11043;DHT22;5574;48.786;10.120;2023-03-17T01:19:42;4.20;99.90
11043;DHT22;5574;48.786;10.120;2023-03-17T01:22:09;4.30;99.90
11043;DHT22;5574;48.786;10.120;2023-03-17T01:24:36;4.20;99.90
11043;DHT22;5574;48.786;10.120;2023-03-17T01:27:04;4.30;99.90
11043;DHT22;5574;48.786;10.120;2023-03-17T01:29:33;4.30;99.90
11043;DHT22;5574;48.786;10.120;2023-03-17T01:31:59;4.30;99.90
11043;DHT22;5574;48.786;10.120;2023-03-17T01:34:26;4.20;99.90
11043;DHT22;5574;48.786;10.120;2023-03-17T01:36:53;4.20;99.90
11043;DHT22;5574;48.786;10.120;2023-03-17T01:39:19;4.20;99.90
11043;DHT22;5574;48.786;10.120;2023-03-17T01:41:46;4.10;99.90
11043;DHT22;5574;48.786;10.120;2023-03-17T01:44:15;4.20;99.90
11043;DHT22;5574;48.786;10.120;2023-03-17T01:46:44;4.20;99.90
11043;DHT22;5574;48.786;10.120;2023-03-17T01:49:15;4.20;99.90
11043;DHT22;5574;48.786;10.120;2023-03-17T01:51:50;4.20;99.90
11043;DHT22;5574;48.786;10.120;2023-03-17T01:54:22;4.20;99.90
11043;DHT22;5574;48.786;10.120;2023-03-17T01:56:51;4.20;99.90
11043;DHT22;5574;48.786;10.120;2023-03-17T01:59:24;4.20;99.90
11043;DHT22;5574;48.786;10.120;2023-03-17T02:01:56;4.20;99.90
11043;DHT22;5574;48.786;10.120;2023-03-17T02:04:24;4.20;99.90
11043;DHT22;5574;48.786;10.120;2023-03-17T02:06:51;4.20;99.90
11043;DHT22;5574;48.786;10.120;2023-03-17T02:09:18;4.20;99.90
11043;DHT22;5574;48.786;10.120;2023-03-17T02:11:44;4.20;99.90
11043;DHT22;5574;48.786;10.120;2023-03-17T02:14:11;4.10;99.90
11043;DHT22;5574;48.786;10.120;2023-03-17T02:16:38;4.10;99.90
11043;DHT22;5574;48.786;10.120;2023-03-17T02:19:06;4.20;99.90
11043;DHT22;5574;48.786;10.120;2023-03-17T02:21:37;4.20;99.90
11043;DHT22;5574;48.786;10.120;2023-03-17T02:24:11;4.20;99.90
11043;DHT22;5574;48.786;10.120;2023-03-17T02:26:38;4.10;99.90
11043;DHT22;5574;48.786;10.120;2023-03-17T02:29:05;4.10;99.90
11043;DHT22;5574;48.786;10.120;2023-03-17T02:31:32;4.10;99.90
11043;DHT22;5574;48.786;10.120;2023-03-17T02:33:59;4.10;99.90
11043;DHT22;5574;48.786;10.120;2023-03-17T02:36:26;4.10;99.90
11043;DHT22;5574;48.786;10.120;2023-03-17T02:38:54;4.10;99.90
11043;DHT22;5574;48.786;10.120;2023-03-17T02:41:21;4.20;99.90
11043;DHT22;5574;48.786;10.120;2023-03-17T02:43:48;4.10;99.90
11043;DHT22;5574;48.786;10.120;2023-03-17T02:46:16;4.10;99.90
11043;DHT22;5574;48.786;10.120;2023-03-17T02:48:43;4.20;99.90
11043;DHT22;5574;48.786;10.120;2023-03-17T02:51:11;4.10;99.90
11043;DHT22;5574;48.786;10.120;2023-03-17T02:53:37;4.10;99.90
11043;DHT22;5574;48.786;10.120;2023-03-17T02:56:06;4.10;99.90
11043;DHT22;5574;48.786;10.120;2023-03-17T02:58:33;4.10;99.90
11043;DHT22;5574;48.786;10.120;2023-03-17T03:01:00;4.10;99.90
11043;DHT22;5574;48.786;10.120;2023-03-17T03:03:28;4.20;99.90
11043;DHT22;5574;48.786;10.120;2023-03-17T03:05:55;4.20;99.90
11043;DHT22;5574;48.786;10.120;2023-03-17T03:08:23;4.30;99.90
11043;DHT22;5574;48.786;10.120;2023-03-17T03:10:50;4.20;99.90
11043;DHT22;5574;48.786;10.120;2023-03-17T03:13:18;4.30;99.90
11043;DHT22;5574;48.786;10.120;2023-03-17T03:15:45;4.20;99.90
11043;DHT22;5574;48.786;10.120;2023-03-17T03:18:12;4.20;99.90
11043;DHT22;5574;48.786;10.120;2023-03-17T03:20:41;4.20;99.90
11043;DHT22;5574;48.786;10.120;2023-03-17T03:23:08;4.20;99.90
11043;DHT22;5574;48.786;10.120;2023-03-17T03:25:36;4.30;99.90
11043;DHT22;5574;48.786;10.120;2023-03-17T03:28:03;4.20;99.90
11043;DHT22;5574;48.786;10.120;2023-03-17T03:30:31;4.30;99.90
11043;DHT22;5574;48.786;10.120;2023-03-17T03:32:58;4.30;99.90
11043;DHT22;5574;48.786;10.120;2023-03-17T03:35:24;4.30;99.90
11043;DHT22;5574;48.786;10.120;2023-03-17T03:37:51;4.30;99.90
11043;DHT22;5574;48.786;10.120;2023-03-17T03:40:18;4.30;99.90
11043;DHT22;5574;48.786;10.120;2023-03-17T03:42:45;4.30;99.90
11043;DHT22;5574;48.786;10.120;2023-03-17T03:45:12;4.30;99.90
11043;DHT22;5574;48.786;10.120;2023-03-17T03:47:40;4.20;99.90
11043;DHT22;5574;48.786;10.120;2023-03-17T03:50:07;4.20;99.90
11043;DHT22;5574;48.786;10.120;2023-03-17T03:52:35;4.10;99.90
11043;DHT22;5574;48.786;10.120;2023-03-17T03:55:01;4.10;99.90
11043;DHT22;5574;48.786;10.120;2023-03-17T03:57:28;4.10;99.90
11043;DHT22;5574;48.786;10.120;2023-03-17T03:59:55;4.10;99.90
11043;DHT22;5574;48.786;10.120;2023-03-17T04:02:22;4.00;99.90
11043;DHT22;5574;48.786;10.120;2023-03-17T04:04:50;4.10;99.90
11043;DHT22;5574;48.786;10.120;2023-03-17T04:07:16;4.10;99.90
11043;DHT22;5574;48.786;10.120;2023-03-17T04:09:43;4.10;99.90
11043;DHT22;5574;48.786;10.120;2023-03-17T04:12:10;4.10;99.90
11043;DHT22;5574;48.786;10.120;2023-03-17T04:14:37;4.20;99.90
11043;DHT22;5574;48.786;10.120;2023-03-17T04:17:03;4.10;99.90
11043;DHT22;5574;48.786;10.120;2023-03-17T04:19:30;4.10;99.90
11043;DHT22;5574;48.786;10.120;2023-03-17T04:21:58;4.10;99.90
11043;DHT22;5574;48.786;10.120;2023-03-17T04:24:26;4.10;99.90
11043;DHT22;5574;48.786;10.120;2023-03-17T04:26:53;4.10;99.90
11043;DHT22;5574;48.786;10.120;2023-03-17T04:29:20;4.10;99.90
11043;DHT22;5574;48.786;10.120;2023-03-17T04:31:47;4.00;99.90
11043;DHT22;5574;48.786;10.120;2023-03-17T04:34:15;4.10;99.90
11043;DHT22;5574;48.786;10.120;2023-03-17T04:36:43;4.10;99.90
11043;DHT22;5574;48.786;10.120;2023-03-17T04:39:11;4.10;99.90
11043;DHT22;5574;48.786;10.120;2023-03-17T04:41:38;4.00;99.90
11043;DHT22;5574;48.786;10.120;2023-03-17T04:44:05;4.10;99.90
11043;DHT22;5574;48.786;10.120;2023-03-17T04:46:32;4.00;99.90
11043;DHT22;5574;48.786;10.120;2023-03-17T04:48:59;4.00;99.90
11043;DHT22;5574;48.786;10.120;2023-03-17T04:51:26;4.00;99.90
11043;DHT22;5574;48.786;10.120;2023-03-17T04:53:53;4.00;99.90
11043;DHT22;5574;48.786;10.120;2023-03-17T04:56:21;4.00;99.90
11043;DHT22;5574;48.786;10.120;2023-03-17T04:58:48;3.90;99.90
11043;DHT22;5574;48.786;10.120;2023-03-17T05:01:14;3.80;99.90
11043;DHT22;5574;48.786;10.120;2023-03-17T05:03:41;3.80;99.90
11043;DHT22;5574;48.786;10.120;2023-03-17T05:06:08;3.80;99.90
11043;DHT22;5574;48.786;10.120;2023-03-17T05:08:35;3.70;99.90
11043;DHT22;5574;48.786;10.120;2023-03-17T05:11:02;3.70;99.90
11043;DHT22;5574;48.786;10.120;2023-03-17T05:13:30;3.70;99.90
11043;DHT22;5574;48.786;10.120;2023-03-17T05:15:57;3.80;99.90
11043;DHT22;5574;48.786;10.120;2023-03-17T05:18:25;3.70;99.90
11043;DHT22;5574;48.786;10.120;2023-03-17T05:20:52;3.70;99.90
11043;DHT22;5574;48.786;10.120;2023-03-17T05:23:19;3.70;99.90
11043;DHT22;5574;48.786;10.120;2023-03-17T05:25:46;3.70;99.90
11043;DHT22;5574;48.786;10.120;2023-03-17T05:28:14;3.60;99.90
11043;DHT22;5574;48.786;10.120;2023-03-17T05:30:42;3.60;99.90
11043;DHT22;5574;48.786;10.120;2023-03-17T05:33:10;3.60;99.90
11043;DHT22;5574;48.786;10.120;2023-03-17T05:35:37;3.50;99.90
11043;DHT22;5574;48.786;10.120;2023-03-17T05:38:05;3.60;99.90
11043;DHT22;5574;48.786;10.120;2023-03-17T05:40:33;3.60;99.90
11043;DHT22;5574;48.786;10.120;2023-03-17T05:43:00;3.60;99.90
11043;DHT22;5574;48.786;10.120;2023-03-17T05:45:28;3.60;99.90
11043;DHT22;5574;48.786;10.120;2023-03-17T05:47:56;3.60;99.90
11043;DHT22;5574;48.786;10.120;2023-03-17T05:50:24;3.50;99.90
11043;DHT22;5574;48.786;10.120;2023-03-17T05:52:51;3.50;99.90
11043;DHT22;5574;48.786;10.120;2023-03-17T05:55:18;3.50;99.90
11043;DHT22;5574;48.786;10.120;2023-03-17T05:57:45;3.50;99.90
11043;DHT22;5574;48.786;10.120;2023-03-17T06:00:13;3.60;99.90
11043;DHT22;5574;48.786;10.120;2023-03-17T06:02:41;3.50;99.90
11043;DHT22;5574;48.786;10.120;2023-03-17T06:05:10;3.50;99.90
11043;DHT22;5574;48.786;10.120;2023-03-17T06:07:37;3.50;99.90
11043;DHT22;5574;48.786;10.120;2023-03-17T06:10:05;3.40;99.90
11043;DHT22;5574;48.786;10.120;2023-03-17T06:12:32;3.50;99.90
11043;DHT22;5574;48.786;10.120;2023-03-17T06:14:58;3.50;99.90
11043;DHT22;5574;48.786;10.120;2023-03-17T06:17:25;3.50;99.90
11043;DHT22;5574;48.786;10.120;2023-03-17T06:19:52;3.50;99.90
11043;DHT22;5574;48.786;10.120;2023-03-17T06:22:20;3.50;99.90
11043;DHT22;5574;48.786;10.120;2023-03-17T06:24:46;3.50;99.90
11043;DHT22;5574;48.786;10.120;2023-03-17T06:27:13;3.50;99.90
11043;DHT22;5574;48.786;10.120;2023-03-17T06:29:40;3.50;99.90
11043;DHT22;5574;48.786;10.120;2023-03-17T06:32:07;3.50;99.90
11043;DHT22;5574;48.786;10.120;2023-03-17T06:34:34;3.60;99.90
11043;DHT22;5574;48.786;10.120;2023-03-17T06:37:00;3.50;99.90
11043;DHT22;5574;48.786;10.120;2023-03-17T06:39:28;3.50;99.90
11043;DHT22;5574;48.786;10.120;2023-03-17T06:41:55;3.50;99.90
11043;DHT22;5574;48.786;10.120;2023-03-17T06:44:22;3.70;99.90
11043;DHT22;5574;48.786;10.120;2023-03-17T06:46:48;3.90;99.90
11043;DHT22;5574;48.786;10.120;2023-03-17T06:49:15;4.00;99.90
11043;DHT22;5574;48.786;10.120;2023-03-17T06:51:42;4.20;99.90
11043;DHT22;5574;48.786;10.120;2023-03-17T06:54:09;4.30;99.90
11043;DHT22;5574;48.786;10.120;2023-03-17T06:56:38;4.40;99.90
11043;DHT22;5574;48.786;10.120;2023-03-17T06:59:05;4.40;99.90
11043;DHT22;5574;48.786;10.120;2023-03-17T07:01:31;4.40;99.90
11043;DHT22;5574;48.786;10.120;2023-03-17T07:03:58;4.50;99.90
11043;DHT22;5574;48.786;10.120;2023-03-17T07:06:25;4.50;99.90
11043;DHT22;5574;48.786;10.120;2023-03-17T07:08:52;4.50;99.90
11043;DHT22;5574;48.786;10.120;2023-03-17T07:11:19;4.60;99.90
11043;DHT22;5574;48.786;10.120;2023-03-17T07:13:49;4.70;99.90
11043;DHT22;5574;48.786;10.120;2023-03-17T07:16:16;4.80;99.90
11043;DHT22;5574;48.786;10.120;2023-03-17T07:18:44;4.90;99.90
11043;DHT22;5574;48.786;10.120;2023-03-17T07:21:10;5.00;99.90
11043;DHT22;5574;48.786;10.120;2023-03-17T07:23:37;5.10;99.90
11043;DHT22;5574;48.786;10.120;2023-03-17T07:26:04;5.30;99.90
11043;DHT22;5574;48.786;10.120;2023-03-17T07:28:31;5.50;99.90
11043;DHT22;5574;48.786;10.120;2023-03-17T07:30:59;5.60;99.90
11043;DHT22;5574;48.786;10.120;2023-03-17T07:33:27;5.80;99.90
11043;DHT22;5574;48.786;10.120;2023-03-17T07:35:55;5.90;99.90
11043;DHT22;5574;48.786;10.120;2023-03-17T07:38:22;6.10;99.90
11043;DHT22;5574;48.786;10.120;2023-03-17T07:40:48;6.30;99.90
11043;DHT22;5574;48.786;10.120;2023-03-17T07:43:15;6.50;99.90
11043;DHT22;5574;48.786;10.120;2023-03-17T07:45:42;6.70;99.90
11043;DHT22;5574;48.786;10.120;2023-03-17T07:48:10;6.90;99.90
11043;DHT22;5574;48.786;10.120;2023-03-17T07:50:37;7.10;99.90
11043;DHT22;5574;48.786;10.120;2023-03-17T07:53:04;7.30;99.90
11043;DHT22;5574;48.786;10.120;2023-03-17T07:55:32;7.50;99.90
11043;DHT22;5574;48.786;10.120;2023-03-17T07:58:00;7.70;99.90
11043;DHT22;5574;48.786;10.120;2023-03-17T08:00:27;7.90;99.90
11043;DHT22;5574;48.786;10.120;2023-03-17T08:02:54;8.00;99.90
11043;DHT22;5574;48.786;10.120;2023-03-17T08:05:23;8.10;99.90
11043;DHT22;5574;48.786;10.120;2023-03-17T08:07:50;8.20;99.90
11043;DHT22;5574;48.786;10.120;2023-03-17T08:10:17;8.30;99.90
11043;DHT22;5574;48.786;10.120;2023-03-17T08:12:43;8.40;99.90
11043;DHT22;5574;48.786;10.120;2023-03-17T08:15:11;8.40;99.90
11043;DHT22;5574;48.786;10.120;2023-03-17T08:17:38;8.40;99.90
11043;DHT22;5574;48.786;10.120;2023-03-17T08:20:06;8.30;99.90
11043;DHT22;5574;48.786;10.120;2023-03-17T08:22:35;8.30;99.90
11043;DHT22;5574;48.786;10.120;2023-03-17T08:25:02;8.20;99.90
11043;DHT22;5574;48.786;10.120;2023-03-17T08:27:29;8.30;99.90
11043;DHT22;5574;48.786;10.120;2023-03-17T08:29:55;8.20;99.90
11043;DHT22;5574;48.786;10.120;2023-03-17T08:32:22;8.30;99.90
11043;DHT22;5574;48.786;10.120;2023-03-17T08:34:52;8.40;99.90
11043;DHT22;5574;48.786;10.120;2023-03-17T08:37:19;8.50;99.90
11043;DHT22;5574;48.786;10.120;2023-03-17T08:39:48;8.60;99.90
11043;DHT22;5574;48.786;10.120;2023-03-17T08:42:14;8.60;99.90
11043;DHT22;5574;48.786;10.120;2023-03-17T08:44:41;8.60;99.90
11043;DHT22;5574;48.786;10.120;2023-03-17T08:47:08;8.60;99.90
11043;DHT22;5574;48.786;10.120;2023-03-17T08:49:35;8.70;99.90
11043;DHT22;5574;48.786;10.120;2023-03-17T08:52:03;8.70;99.90
11043;DHT22;5574;48.786;10.120;2023-03-17T08:54:29;8.80;99.90
11043;DHT22;5574;48.786;10.120;2023-03-17T08:56:58;8.90;99.90
11043;DHT22;5574;48.786;10.120;2023-03-17T08:59:26;9.10;99.90
11043;DHT22;5574;48.786;10.120;2023-03-17T09:01:53;9.30;99.90
11043;DHT22;5574;48.786;10.120;2023-03-17T09:04:20;9.50;99.90
11043;DHT22;5574;48.786;10.120;2023-03-17T09:06:47;9.80;99.90
11043;DHT22;5574;48.786;10.120;2023-03-17T09:09:14;10.00;99.90
11043;DHT22;5574;48.786;10.120;2023-03-17T09:11:41;10.30;99.90
11043;DHT22;5574;48.786;10.120;2023-03-17T09:14:09;10.50;99.90
11043;DHT22;5574;48.786;10.120;2023-03-17T09:16:36;10.70;99.60
11043;DHT22;5574;48.786;10.120;2023-03-17T09:19:03;10.70;99.50
11043;DHT22;5574;48.786;10.120;2023-03-17T09:21:30;10.70;99.30
11043;DHT22;5574;48.786;10.120;2023-03-17T09:23:57;10.80;99.30
11043;DHT22;5574;48.786;10.120;2023-03-17T09:26:23;11.00;99.40
11043;DHT22;5574;48.786;10.120;2023-03-17T09:28:50;11.20;99.00
11043;DHT22;5574;48.786;10.120;2023-03-17T09:31:19;11.40;99.00
11043;DHT22;5574;48.786;10.120;2023-03-17T09:33:46;11.40;98.40
11043;DHT22;5574;48.786;10.120;2023-03-17T09:36:12;11.60;99.00
11043;DHT22;5574;48.786;10.120;2023-03-17T09:38:39;11.60;98.30
11043;DHT22;5574;48.786;10.120;2023-03-17T09:41:22;11.80;97.80
11043;DHT22;5574;48.786;10.120;2023-03-17T09:43:57;12.00;98.10
11043;DHT22;5574;48.786;10.120;2023-03-17T09:46:39;12.30;98.30
11043;DHT22;5574;48.786;10.120;2023-03-17T09:49:08;12.60;97.70
11043;DHT22;5574;48.786;10.120;2023-03-17T09:51:37;12.70;97.40
11043;DHT22;5574;48.786;10.120;2023-03-17T09:54:09;12.90;97.80
11043;DHT22;5574;48.786;10.120;2023-03-17T09:56:40;12.90;96.60
11043;DHT22;5574;48.786;10.120;2023-03-17T09:59:28;13.10;96.30
11043;DHT22;5574;48.786;10.120;2023-03-17T10:01:56;13.20;96.30
11043;DHT22;5574;48.786;10.120;2023-03-17T10:04:23;13.40;96.80
11043;DHT22;5574;48.786;10.120;2023-03-17T10:06:51;13.60;96.40
11043;DHT22;5574;48.786;10.120;2023-03-17T10:09:24;13.60;94.40
11043;DHT22;5574;48.786;10.120;2023-03-17T10:12:02;13.70;95.50
11043;DHT22;5574;48.786;10.120;2023-03-17T10:14:40;13.70;97.10
11043;DHT22;5574;48.786;10.120;2023-03-17T10:17:17;13.70;96.10
11043;DHT22;5574;48.786;10.120;2023-03-17T10:19:49;13.90;95.00
11043;DHT22;5574;48.786;10.120;2023-03-17T10:22:24;13.90;94.80
11043;DHT22;5574;48.786;10.120;2023-03-17T10:24:58;14.20;94.30
11043;DHT22;5574;48.786;10.120;2023-03-17T10:27:28;14.30;94.00
11043;DHT22;5574;48.786;10.120;2023-03-17T10:29:56;14.50;94.00
11043;DHT22;5574;48.786;10.120;2023-03-17T10:32:25;14.70;93.80
11043;DHT22;5574;48.786;10.120;2023-03-17T10:34:54;14.80;92.30
11043;DHT22;5574;48.786;10.120;2023-03-17T10:37:22;14.90;92.30
11043;DHT22;5574;48.786;10.120;2023-03-17T10:39:53;15.20;92.30
11043;DHT22;5574;48.786;10.120;2023-03-17T10:42:22;15.30;94.20
11043;DHT22;5574;48.786;10.120;2023-03-17T10:44:53;15.30;93.50
11043;DHT22;5574;48.786;10.120;2023-03-17T10:47:29;15.50;92.50
11043;DHT22;5574;48.786;10.120;2023-03-17T10:49:58;15.70;91.60
11043;DHT22;5574;48.786;10.120;2023-03-17T10:52:29;15.80;91.90
11043;DHT22;5574;48.786;10.120;2023-03-17T10:55:00;15.90;91.70
11043;DHT22;5574;48.786;10.120;2023-03-17T10:57:27;16.10;91.50
11043;DHT22;5574;48.786;10.120;2023-03-17T10:59:55;16.00;91.30
11043;DHT22;5574;48.786;10.120;2023-03-17T11:02:26;16.10;91.00
11043;DHT22;5574;48.786;10.120;2023-03-17T11:04:58;16.20;90.50
11043;DHT22;5574;48.786;10.120;2023-03-17T11:07:28;16.20;90.30
11043;DHT22;5574;48.786;10.120;2023-03-17T11:09:57;16.30;90.60
11043;DHT22;5574;48.786;10.120;2023-03-17T11:12:27;16.40;91.00
11043;DHT22;5574;48.786;10.120;2023-03-17T11:14:58;16.50;90.70
11043;DHT22;5574;48.786;10.120;2023-03-17T11:17:37;16.80;91.80
11043;DHT22;5574;48.786;10.120;2023-03-17T11:20:24;17.00;90.20
11043;DHT22;5574;48.786;10.120;2023-03-17T11:22:57;17.10;89.60
11043;DHT22;5574;48.786;10.120;2023-03-17T11:25:27;17.20;89.20
11043;DHT22;5574;48.786;10.120;2023-03-17T11:28:05;17.00;87.40
11043;DHT22;5574;48.786;10.120;2023-03-17T11:30:44;17.10;88.70
11043;DHT22;5574;48.786;10.120;2023-03-17T11:33:24;17.20;87.40
11043;DHT22;5574;48.786;10.120;2023-03-17T11:35:56;17.20;87.00
11043;DHT22;5574;48.786;10.120;2023-03-17T11:38:25;17.30;86.60
11043;DHT22;5574;48.786;10.120;2023-03-17T11:41:10;17.30;88.40
11043;DHT22;5574;48.786;10.120;2023-03-17T11:43:47;17.50;89.70
11043;DHT22;5574;48.786;10.120;2023-03-17T11:46:19;17.60;85.20
11043;DHT22;5574;48.786;10.120;2023-03-17T11:48:54;17.70;86.30
11043;DHT22;5574;48.786;10.120;2023-03-17T11:51:29;17.80;87.20
11043;DHT22;5574;48.786;10.120;2023-03-17T11:54:06;17.70;84.90
11043;DHT22;5574;48.786;10.120;2023-03-17T11:56:39;17.80;85.80
11043;DHT22;5574;48.786;10.120;2023-03-17T11:59:18;17.70;82.20
11043;DHT22;5574;48.786;10.120;2023-03-17T12:01:56;17.60;84.20
11043;DHT22;5574;48.786;10.120;2023-03-17T12:04:28;17.40;83.70
11043;DHT22;5574;48.786;10.120;2023-03-17T12:07:02;17.30;81.90
11043;DHT22;5574;48.786;10.120;2023-03-17T12:09:37;17.30;80.20
11043;DHT22;5574;48.786;10.120;2023-03-17T12:12:07;17.40;84.20
11043;DHT22;5574;48.786;10.120;2023-03-17T12:14:39;17.30;82.30
11043;DHT22;5574;48.786;10.120;2023-03-17T12:17:10;17.10;79.60
11043;DHT22;5574;48.786;10.120;2023-03-17T12:19:45;17.00;80.10
11043;DHT22;5574;48.786;10.120;2023-03-17T12:22:21;16.90;79.20
11043;DHT22;5574;48.786;10.120;2023-03-17T12:24:59;16.90;78.50
11043;DHT22;5574;48.786;10.120;2023-03-17T12:27:30;17.00;78.70
11043;DHT22;5574;48.786;10.120;2023-03-17T12:30:00;17.00;78.80
11043;DHT22;5574;48.786;10.120;2023-03-17T12:32:34;16.90;77.60
11043;DHT22;5574;48.786;10.120;2023-03-17T12:35:20;17.00;77.70
11043;DHT22;5574;48.786;10.120;2023-03-17T12:37:48;17.10;79.30
11043;DHT22;5574;48.786;10.120;2023-03-17T12:40:18;17.10;77.60
11043;DHT22;5574;48.786;10.120;2023-03-17T12:42:49;17.20;76.50
11043;DHT22;5574;48.786;10.120;2023-03-17T12:45:29;17.10;76.20
11043;DHT22;5574;48.786;10.120;2023-03-17T12:48:23;17.00;76.70
11043;DHT22;5574;48.786;10.120;2023-03-17T12:51:29;16.90;76.00
11043;DHT22;5574;48.786;10.120;2023-03-17T12:53:59;16.90;76.20
11043;DHT22;5574;48.786;10.120;2023-03-17T12:56:27;16.80;75.80
11043;DHT22;5574;48.786;10.120;2023-03-17T12:59:00;16.80;73.60
11043;DHT22;5574;48.786;10.120;2023-03-17T13:01:30;16.90;75.00
11043;DHT22;5574;48.786;10.120;2023-03-17T13:04:08;16.80;72.40
11043;DHT22;5574;48.786;10.120;2023-03-17T13:06:43;16.90;73.50
11043;DHT22;5574;48.786;10.120;2023-03-17T13:09:42;16.90;73.50
11043;DHT22;5574;48.786;10.120;2023-03-17T13:12:35;17.00;75.00
11043;DHT22;5574;48.786;10.120;2023-03-17T13:15:22;17.10;75.40
11043;DHT22;5574;48.786;10.120;2023-03-17T13:18:20;17.10;71.20
11043;DHT22;5574;48.786;10.120;2023-03-17T13:20:51;17.10;74.10
11043;DHT22;5574;48.786;10.120;2023-03-17T13:23:39;17.10;73.70
11043;DHT22;5574;48.786;10.120;2023-03-17T13:26:06;17.00;68.60
11043;DHT22;5574;48.786;10.120;2023-03-17T13:28:44;17.00;70.60
11043;DHT22;5574;48.786;10.120;2023-03-17T13:31:33;17.00;72.30
11043;DHT22;5574;48.786;10.120;2023-03-17T13:34:12;16.90;71.90
11043;DHT22;5574;48.786;10.120;2023-03-17T13:37:02;16.80;72.80
11043;DHT22;5574;48.786;10.120;2023-03-17T13:39:57;16.80;74.90
11043;DHT22;5574;48.786;10.120;2023-03-17T13:42:34;16.80;73.40
11043;DHT22;5574;48.786;10.120;2023-03-17T13:45:23;16.70;71.50
11043;DHT22;5574;48.786;10.120;2023-03-17T13:48:26;16.70;73.30
11043;DHT22;5574;48.786;10.120;2023-03-17T13:51:00;16.60;71.50
11043;DHT22;5574;48.786;10.120;2023-03-17T13:53:30;16.50;69.40
11043;DHT22;5574;48.786;10.120;2023-03-17T13:56:13;16.40;70.70
11043;DHT22;5574;48.786;10.120;2023-03-17T13:59:04;16.30;70.80
11043;DHT22;5574;48.786;10.120;2023-03-17T14:01:35;16.30;71.50
11043;DHT22;5574;48.786;10.120;2023-03-17T14:04:11;16.30;70.70
11043;DHT22;5574;48.786;10.120;2023-03-17T14:06:38;16.40;70.80
11043;DHT22;5574;48.786;10.120;2023-03-17T14:09:07;16.40;74.20
11043;DHT22;5574;48.786;10.120;2023-03-17T14:11:38;16.40;70.40
11043;DHT22;5574;48.786;10.120;2023-03-17T14:14:15;16.50;73.10
11043;DHT22;5574;48.786;10.120;2023-03-17T14:16:46;16.70;73.30
11043;DHT22;5574;48.786;10.120;2023-03-17T14:19:20;16.80;73.80
11043;DHT22;5574;48.786;10.120;2023-03-17T14:21:47;16.70;76.50
11043;DHT22;5574;48.786;10.120;2023-03-17T14:24:20;16.90;74.80
11043;DHT22;5574;48.786;10.120;2023-03-17T14:26:49;16.90;76.10
11043;DHT22;5574;48.786;10.120;2023-03-17T14:29:18;16.80;76.50
11043;DHT22;5574;48.786;10.120;2023-03-17T14:31:46;16.80;70.70
11043;DHT22;5574;48.786;10.120;2023-03-17T14:34:14;16.90;72.20
11043;DHT22;5574;48.786;10.120;2023-03-17T14:36:42;16.80;71.20
11043;DHT22;5574;48.786;10.120;2023-03-17T14:39:20;16.70;70.80
11043;DHT22;5574;48.786;10.120;2023-03-17T14:41:58;16.70;73.30
11043;DHT22;5574;48.786;10.120;2023-03-17T14:44:25;16.70;73.30
11043;DHT22;5574;48.786;10.120;2023-03-17T14:47:00;16.80;73.40
11043;DHT22;5574;48.786;10.120;2023-03-17T14:49:27;16.60;72.80
11043;DHT22;5574;48.786;10.120;2023-03-17T14:51:55;16.80;74.10
11043;DHT22;5574;48.786;10.120;2023-03-17T14:54:25;16.80;74.00
11043;DHT22;5574;48.786;10.120;2023-03-17T14:56:55;16.80;73.40
11043;DHT22;5574;48.786;10.120;2023-03-17T14:59:31;16.80;73.40
11043;DHT22;5574;48.786;10.120;2023-03-17T15:01:59;16.70;72.00
11043;DHT22;5574;48.786;10.120;2023-03-17T15:04:28;16.60;71.90
11043;DHT22;5574;48.786;10.120;2023-03-17T15:06:57;16.50;71.90
11043;DHT22;5574;48.786;10.120;2023-03-17T15:09:26;16.50;71.00
11043;DHT22;5574;48.786;10.120;2023-03-17T15:11:54;16.60;72.30
11043;DHT22;5574;48.786;10.120;2023-03-17T15:14:29;16.60;71.90
11043;DHT22;5574;48.786;10.120;2023-03-17T15:16:57;16.70;71.50
11043;DHT22;5574;48.786;10.120;2023-03-17T15:19:26;16.60;76.10
11043;DHT22;5574;48.786;10.120;2023-03-17T15:21:54;16.60;73.80
11043;DHT22;5574;48.786;10.120;2023-03-17T15:24:32;16.40;71.70
11043;DHT22;5574;48.786;10.120;2023-03-17T15:27:01;16.50;72.80
11043;DHT22;5574;48.786;10.120;2023-03-17T15:29:29;16.50;71.70
11043;DHT22;5574;48.786;10.120;2023-03-17T15:32:04;16.50;73.10
11043;DHT22;5574;48.786;10.120;2023-03-17T15:34:32;16.50;74.90
11043;DHT22;5574;48.786;10.120;2023-03-17T15:36:58;16.50;73.50
11043;DHT22;5574;48.786;10.120;2023-03-17T15:39:25;16.60;73.20
11043;DHT22;5574;48.786;10.120;2023-03-17T15:41:52;16.60;78.00
11043;DHT22;5574;48.786;10.120;2023-03-17T15:44:18;16.60;75.80
11043;DHT22;5574;48.786;10.120;2023-03-17T15:46:47;16.40;74.80
11043;DHT22;5574;48.786;10.120;2023-03-17T15:49:14;16.40;75.10
11043;DHT22;5574;48.786;10.120;2023-03-17T15:51:40;16.30;76.70
11043;DHT22;5574;48.786;10.120;2023-03-17T15:54:12;16.20;76.30
11043;DHT22;5574;48.786;10.120;2023-03-17T15:56:39;16.10;78.40